KPIH/PIH METAR and TAF weather

Enter ICAO airport designator
Station Type Date Time Source
KPIH METAR 2020/09/22 04:53 UTC NOAA

KPIH 220453Z AUTO 08005KT 10SM CLR 17/04 A3004 RMK AO2 SLP137 T01720039


Station Type Date Time Source
KPIH Decoded METAR 2020/09/22 04:53 UTC NOAA

POCATELLO REGIONAL AIRPORT, ID, United States (KPIH) 42-55N 112-36W 1359M
Sep 22, 2020 - 12:53 AM EDT / 2020.09.22 0453 UTC
Wind: from the E (080 degrees) at 6 MPH (5 KT):0
Visibility: 10 mile(s):0
Sky conditions: clear
Temperature: 63.0 F (17.2 C)
Dew Point: 39.0 F (3.9 C)
Relative Humidity: 41%
Pressure (altimeter): 30.04 in. Hg (1017 hPa)
ob: KPIH 220453Z AUTO 08005KT 10SM CLR 17/04 A3004 RMK AO2 SLP137 T01720039
cycle: 5

Station Type Date Time Source
KPIH TAF 2020/09/21 18:22 UTC NOAA

TAF KPIH 211720Z 2118/2218 05007KT P6SM SKC
FM212000 18008KT P6SM FEW050
FM220300 VRB06KT P6SM SCT120

Example: see airport list